LIBP

Pescara International Airport

Pescara, Italy
TAF LIBP 221100Z 2212/2312 29008KT 9999 BKN020 TEMPO 2212/2215 4000 RA
Issued Valid From Valid To
Jan-22 @ 11:00 UTC
(6 hours ago)
Jan-22 @ 12:00 UTC
(5 hours ago)
Jan-23 @ 12:00 UTC
(in 19 hours)
Jan-22 @ 12:00 to Jan-23 @ 12:00
TAF LIBP 221100Z 2212/2312 29008KT 9999 BKN020
Wind Visibility Clouds
290° at 8 knots 10,000+ meters
  • Broken at 2,000' AGL
Expired Click to View Jan-22 @ 12:00 to Jan-22 @ 15:00
TEMPO 2212/2215 4000 RA
Visibility Conditions
4,007 meters
  • Rain
TAF LIBP 221100Z 2212/2312 29008KT 9999 BKN020 TEMPO 2212/2215 4000 RA
Issued Jan-22 @ 11:00 UTC
(6 hours ago)
Valid From Jan-22 @ 12:00 UTC
(5 hours ago)
Valid To Jan-23 @ 12:00 UTC
(in 19 hours)
Jan-22 @ 12:00 - Jan-23 @ 12:00
Wind Visibility
290° at 8 knots 10,000+ meters
Clouds
  • Broken at 2,000' AGL
Jan-22 @ 12:00 - Jan-22 @ 15:00
Conditions
  • Rain